sensor_id;sensor_type;location;lat;lon;timestamp;P1;durP1;ratioP1;P2;durP2;ratioP2
32407;SDS011;18869;55.970;37.502;2023-08-12T00:02:11;21.00;;;16.60;;
32407;SDS011;18869;55.970;37.502;2023-08-12T00:04:38;19.17;;;15.03;;
32407;SDS011;18869;55.970;37.502;2023-08-12T00:07:05;21.77;;;16.20;;
32407;SDS011;18869;55.970;37.502;2023-08-12T00:09:33;18.27;;;15.53;;
32407;SDS011;18869;55.970;37.502;2023-08-12T00:12:00;20.67;;;15.50;;
32407;SDS011;18869;55.970;37.502;2023-08-12T00:14:26;16.70;;;13.83;;
32407;SDS011;18869;55.970;37.502;2023-08-12T00:16:53;19.43;;;14.50;;
32407;SDS011;18869;55.970;37.502;2023-08-12T00:19:20;18.10;;;14.47;;
32407;SDS011;18869;55.970;37.502;2023-08-12T00:21:47;18.43;;;13.93;;
32407;SDS011;18869;55.970;37.502;2023-08-12T00:24:14;15.57;;;13.83;;
32407;SDS011;18869;55.970;37.502;2023-08-12T00:26:41;15.03;;;12.87;;
32407;SDS011;18869;55.970;37.502;2023-08-12T00:29:08;14.77;;;13.10;;
32407;SDS011;18869;55.970;37.502;2023-08-12T00:31:35;18.70;;;14.50;;
32407;SDS011;18869;55.970;37.502;2023-08-12T00:34:02;16.50;;;13.60;;
32407;SDS011;18869;55.970;37.502;2023-08-12T00:36:29;16.60;;;13.27;;
32407;SDS011;18869;55.970;37.502;2023-08-12T00:38:56;14.70;;;12.73;;
32407;SDS011;18869;55.970;37.502;2023-08-12T00:41:23;15.40;;;12.63;;
32407;SDS011;18869;55.970;37.502;2023-08-12T00:43:50;18.67;;;12.90;;
32407;SDS011;18869;55.970;37.502;2023-08-12T00:46:18;16.17;;;12.57;;
32407;SDS011;18869;55.970;37.502;2023-08-12T00:48:45;14.17;;;12.67;;
32407;SDS011;18869;55.970;37.502;2023-08-12T00:51:15;13.17;;;11.50;;
32407;SDS011;18869;55.970;37.502;2023-08-12T00:53:42;14.03;;;11.67;;
32407;SDS011;18869;55.970;37.502;2023-08-12T00:56:09;17.33;;;12.63;;
32407;SDS011;18869;55.970;37.502;2023-08-12T00:58:36;17.50;;;13.43;;
32407;SDS011;18869;55.970;37.502;2023-08-12T01:01:04;14.23;;;12.73;;
32407;SDS011;18869;55.970;37.502;2023-08-12T01:03:31;14.87;;;13.30;;
32407;SDS011;18869;55.970;37.502;2023-08-12T01:05:58;15.03;;;12.77;;
32407;SDS011;18869;55.970;37.502;2023-08-12T01:08:27;19.07;;;14.00;;
32407;SDS011;18869;55.970;37.502;2023-08-12T01:10:58;15.00;;;12.83;;
32407;SDS011;18869;55.970;37.502;2023-08-12T01:13:32;16.70;;;14.27;;
32407;SDS011;18869;55.970;37.502;2023-08-12T01:16:05;15.53;;;12.60;;
32407;SDS011;18869;55.970;37.502;2023-08-12T01:18:34;15.40;;;11.83;;
32407;SDS011;18869;55.970;37.502;2023-08-12T01:21:01;20.93;;;13.90;;
32407;SDS011;18869;55.970;37.502;2023-08-12T01:23:30;17.33;;;13.70;;
32407;SDS011;18869;55.970;37.502;2023-08-12T01:25:57;15.53;;;12.33;;
32407;SDS011;18869;55.970;37.502;2023-08-12T01:28:24;15.43;;;13.47;;
32407;SDS011;18869;55.970;37.502;2023-08-12T01:30:53;19.60;;;14.23;;
32407;SDS011;18869;55.970;37.502;2023-08-12T01:33:26;20.33;;;13.67;;
32407;SDS011;18869;55.970;37.502;2023-08-12T01:35:58;15.83;;;13.53;;
32407;SDS011;18869;55.970;37.502;2023-08-12T01:38:34;16.10;;;13.63;;
32407;SDS011;18869;55.970;37.502;2023-08-12T01:41:02;16.87;;;14.93;;
32407;SDS011;18869;55.970;37.502;2023-08-12T01:43:29;17.43;;;12.40;;
32407;SDS011;18869;55.970;37.502;2023-08-12T01:45:56;19.70;;;15.43;;
32407;SDS011;18869;55.970;37.502;2023-08-12T01:48:24;20.97;;;14.60;;
32407;SDS011;18869;55.970;37.502;2023-08-12T01:50:50;16.53;;;14.33;;
32407;SDS011;18869;55.970;37.502;2023-08-12T01:53:17;18.37;;;13.97;;
32407;SDS011;18869;55.970;37.502;2023-08-12T01:55:45;16.43;;;12.90;;
32407;SDS011;18869;55.970;37.502;2023-08-12T01:58:12;21.10;;;14.13;;
32407;SDS011;18869;55.970;37.502;2023-08-12T02:00:39;18.00;;;14.20;;
32407;SDS011;18869;55.970;37.502;2023-08-12T02:03:06;15.57;;;13.53;;
32407;SDS011;18869;55.970;37.502;2023-08-12T02:05:34;15.00;;;12.67;;
32407;SDS011;18869;55.970;37.502;2023-08-12T02:08:03;15.67;;;12.57;;
32407;SDS011;18869;55.970;37.502;2023-08-12T02:10:34;15.40;;;13.77;;
32407;SDS011;18869;55.970;37.502;2023-08-12T02:13:01;17.20;;;13.43;;
32407;SDS011;18869;55.970;37.502;2023-08-12T02:15:29;13.87;;;12.37;;
32407;SDS011;18869;55.970;37.502;2023-08-12T02:17:56;14.07;;;12.57;;
32407;SDS011;18869;55.970;37.502;2023-08-12T02:20:25;15.13;;;13.53;;
32407;SDS011;18869;55.970;37.502;2023-08-12T02:22:52;16.00;;;14.20;;
32407;SDS011;18869;55.970;37.502;2023-08-12T02:25:19;18.63;;;14.07;;
32407;SDS011;18869;55.970;37.502;2023-08-12T02:27:46;14.20;;;12.50;;
32407;SDS011;18869;55.970;37.502;2023-08-12T02:30:13;17.73;;;14.20;;
32407;SDS011;18869;55.970;37.502;2023-08-12T02:32:41;16.13;;;14.50;;
32407;SDS011;18869;55.970;37.502;2023-08-12T02:35:09;18.13;;;14.77;;
32407;SDS011;18869;55.970;37.502;2023-08-12T02:37:36;16.40;;;13.07;;
32407;SDS011;18869;55.970;37.502;2023-08-12T02:40:03;15.93;;;14.13;;
32407;SDS011;18869;55.970;37.502;2023-08-12T02:42:31;18.53;;;14.73;;
32407;SDS011;18869;55.970;37.502;2023-08-12T02:44:58;16.70;;;13.40;;
32407;SDS011;18869;55.970;37.502;2023-08-12T02:47:26;16.90;;;14.20;;
32407;SDS011;18869;55.970;37.502;2023-08-12T02:49:53;15.13;;;13.43;;
32407;SDS011;18869;55.970;37.502;2023-08-12T02:52:20;16.67;;;12.13;;
32407;SDS011;18869;55.970;37.502;2023-08-12T02:54:47;15.37;;;12.17;;
32407;SDS011;18869;55.970;37.502;2023-08-12T02:57:14;14.47;;;12.93;;
32407;SDS011;18869;55.970;37.502;2023-08-12T02:59:41;14.63;;;12.60;;
32407;SDS011;18869;55.970;37.502;2023-08-12T03:02:08;13.87;;;10.80;;
32407;SDS011;18869;55.970;37.502;2023-08-12T03:04:36;14.40;;;11.47;;
32407;SDS011;18869;55.970;37.502;2023-08-12T03:07:03;13.87;;;11.70;;
32407;SDS011;18869;55.970;37.502;2023-08-12T03:09:30;13.83;;;11.07;;
32407;SDS011;18869;55.970;37.502;2023-08-12T03:11:57;14.23;;;11.87;;
32407;SDS011;18869;55.970;37.502;2023-08-12T03:14:29;13.03;;;11.73;;
32407;SDS011;18869;55.970;37.502;2023-08-12T03:16:57;12.30;;;11.10;;
32407;SDS011;18869;55.970;37.502;2023-08-12T03:19:25;12.60;;;11.30;;
32407;SDS011;18869;55.970;37.502;2023-08-12T03:21:53;13.27;;;10.80;;
32407;SDS011;18869;55.970;37.502;2023-08-12T03:24:21;12.47;;;10.53;;
32407;SDS011;18869;55.970;37.502;2023-08-12T03:26:48;13.60;;;10.53;;
32407;SDS011;18869;55.970;37.502;2023-08-12T03:29:15;12.17;;;10.80;;
32407;SDS011;18869;55.970;37.502;2023-08-12T03:31:42;12.40;;;10.37;;
32407;SDS011;18869;55.970;37.502;2023-08-12T03:34:09;13.17;;;10.53;;
32407;SDS011;18869;55.970;37.502;2023-08-12T03:36:36;13.10;;;11.50;;
32407;SDS011;18869;55.970;37.502;2023-08-12T03:39:04;12.03;;;10.93;;
32407;SDS011;18869;55.970;37.502;2023-08-12T03:41:32;10.70;;;9.60;;
32407;SDS011;18869;55.970;37.502;2023-08-12T03:43:59;13.53;;;10.20;;
32407;SDS011;18869;55.970;37.502;2023-08-12T03:46:26;10.97;;;9.90;;
32407;SDS011;18869;55.970;37.502;2023-08-12T03:48:53;11.20;;;10.10;;
32407;SDS011;18869;55.970;37.502;2023-08-12T03:51:20;14.87;;;10.67;;
32407;SDS011;18869;55.970;37.502;2023-08-12T03:53:47;11.53;;;10.13;;
32407;SDS011;18869;55.970;37.502;2023-08-12T03:56:16;12.20;;;10.97;;
32407;SDS011;18869;55.970;37.502;2023-08-12T03:58:43;13.93;;;10.83;;
32407;SDS011;18869;55.970;37.502;2023-08-12T04:01:11;11.30;;;10.03;;
32407;SDS011;18869;55.970;37.502;2023-08-12T04:03:38;11.73;;;10.63;;
32407;SDS011;18869;55.970;37.502;2023-08-12T04:06:04;11.93;;;10.43;;
32407;SDS011;18869;55.970;37.502;2023-08-12T04:08:31;12.13;;;9.80;;
32407;SDS011;18869;55.970;37.502;2023-08-12T04:10:59;12.23;;;10.50;;
32407;SDS011;18869;55.970;37.502;2023-08-12T04:13:27;14.37;;;11.23;;
32407;SDS011;18869;55.970;37.502;2023-08-12T04:15:54;11.90;;;10.70;;
32407;SDS011;18869;55.970;37.502;2023-08-12T04:18:21;10.50;;;9.40;;
32407;SDS011;18869;55.970;37.502;2023-08-12T04:20:49;11.57;;;10.37;;
32407;SDS011;18869;55.970;37.502;2023-08-12T04:23:16;11.60;;;10.40;;
32407;SDS011;18869;55.970;37.502;2023-08-12T04:25:47;10.90;;;9.70;;
32407;SDS011;18869;55.970;37.502;2023-08-12T04:28:14;10.23;;;9.00;;
32407;SDS011;18869;55.970;37.502;2023-08-12T04:30:43;11.07;;;9.97;;
32407;SDS011;18869;55.970;37.502;2023-08-12T04:33:12;10.60;;;9.50;;
32407;SDS011;18869;55.970;37.502;2023-08-12T04:35:42;11.53;;;9.13;;
32407;SDS011;18869;55.970;37.502;2023-08-12T04:38:18;11.10;;;9.27;;
32407;SDS011;18869;55.970;37.502;2023-08-12T04:40:46;12.47;;;10.17;;
32407;SDS011;18869;55.970;37.502;2023-08-12T04:43:13;12.20;;;9.57;;
32407;SDS011;18869;55.970;37.502;2023-08-12T04:45:45;11.33;;;10.23;;
32407;SDS011;18869;55.970;37.502;2023-08-12T04:48:12;12.13;;;10.20;;
32407;SDS011;18869;55.970;37.502;2023-08-12T04:50:41;11.23;;;10.13;;
32407;SDS011;18869;55.970;37.502;2023-08-12T04:53:08;14.30;;;10.00;;
32407;SDS011;18869;55.970;37.502;2023-08-12T04:55:34;14.37;;;9.03;;
32407;SDS011;18869;55.970;37.502;2023-08-12T04:58:04;12.30;;;10.33;;
32407;SDS011;18869;55.970;37.502;2023-08-12T05:00:31;10.60;;;9.57;;
32407;SDS011;18869;55.970;37.502;2023-08-12T05:02:59;13.50;;;9.67;;
32407;SDS011;18869;55.970;37.502;2023-08-12T05:05:26;15.53;;;9.57;;
32407;SDS011;18869;55.970;37.502;2023-08-12T05:07:53;11.30;;;9.60;;
32407;SDS011;18869;55.970;37.502;2023-08-12T05:10:22;14.37;;;9.87;;
32407;SDS011;18869;55.970;37.502;2023-08-12T05:12:49;11.77;;;9.90;;
32407;SDS011;18869;55.970;37.502;2023-08-12T05:15:18;13.37;;;9.50;;
32407;SDS011;18869;55.970;37.502;2023-08-12T05:17:44;12.00;;;9.23;;
32407;SDS011;18869;55.970;37.502;2023-08-12T05:20:13;10.80;;;9.43;;
32407;SDS011;18869;55.970;37.502;2023-08-12T05:22:40;10.20;;;9.17;;
32407;SDS011;18869;55.970;37.502;2023-08-12T05:25:08;9.90;;;8.90;;
32407;SDS011;18869;55.970;37.502;2023-08-12T05:27:35;10.67;;;9.60;;
32407;SDS011;18869;55.970;37.502;2023-08-12T05:30:02;11.43;;;9.70;;
32407;SDS011;18869;55.970;37.502;2023-08-12T05:32:32;16.03;;;10.23;;
32407;SDS011;18869;55.970;37.502;2023-08-12T05:34:59;12.60;;;10.03;;
32407;SDS011;18869;55.970;37.502;2023-08-12T05:37:37;10.23;;;9.13;;
32407;SDS011;18869;55.970;37.502;2023-08-12T05:40:05;11.50;;;9.23;;
32407;SDS011;18869;55.970;37.502;2023-08-12T05:42:34;11.73;;;8.83;;
32407;SDS011;18869;55.970;37.502;2023-08-12T05:45:01;10.17;;;9.13;;
32407;SDS011;18869;55.970;37.502;2023-08-12T05:47:32;10.70;;;9.60;;
32407;SDS011;18869;55.970;37.502;2023-08-12T05:49:59;10.03;;;9.00;;
32407;SDS011;18869;55.970;37.502;2023-08-12T05:52:30;12.57;;;8.90;;
32407;SDS011;18869;55.970;37.502;2023-08-12T05:54:59;11.77;;;9.70;;
32407;SDS011;18869;55.970;37.502;2023-08-12T05:57:26;10.30;;;9.23;;
32407;SDS011;18869;55.970;37.502;2023-08-12T05:59:53;9.83;;;8.83;;
32407;SDS011;18869;55.970;37.502;2023-08-12T06:02:20;10.57;;;8.60;;
32407;SDS011;18869;55.970;37.502;2023-08-12T06:04:47;12.87;;;9.33;;
32407;SDS011;18869;55.970;37.502;2023-08-12T06:07:14;12.27;;;8.87;;
32407;SDS011;18869;55.970;37.502;2023-08-12T06:09:42;12.77;;;9.00;;
32407;SDS011;18869;55.970;37.502;2023-08-12T06:12:10;10.57;;;8.60;;
32407;SDS011;18869;55.970;37.502;2023-08-12T06:14:37;12.23;;;8.90;;
32407;SDS011;18869;55.970;37.502;2023-08-12T06:17:04;12.40;;;8.43;;
32407;SDS011;18869;55.970;37.502;2023-08-12T06:19:31;12.77;;;8.70;;
32407;SDS011;18869;55.970;37.502;2023-08-12T06:21:58;11.23;;;9.20;;
32407;SDS011;18869;55.970;37.502;2023-08-12T06:24:25;9.37;;;8.47;;
32407;SDS011;18869;55.970;37.502;2023-08-12T06:26:52;10.30;;;9.00;;
32407;SDS011;18869;55.970;37.502;2023-08-12T06:29:20;13.63;;;9.67;;
32407;SDS011;18869;55.970;37.502;2023-08-12T06:31:47;12.77;;;8.53;;
32407;SDS011;18869;55.970;37.502;2023-08-12T06:34:14;9.57;;;8.53;;
32407;SDS011;18869;55.970;37.502;2023-08-12T06:36:41;10.83;;;8.73;;
32407;SDS011;18869;55.970;37.502;2023-08-12T06:39:08;9.77;;;8.73;;
32407;SDS011;18869;55.970;37.502;2023-08-12T06:41:36;11.27;;;8.10;;
32407;SDS011;18869;55.970;37.502;2023-08-12T06:44:03;8.70;;;7.80;;
32407;SDS011;18869;55.970;37.502;2023-08-12T06:46:31;10.00;;;8.03;;
32407;SDS011;18869;55.970;37.502;2023-08-12T06:49:00;10.00;;;7.87;;
32407;SDS011;18869;55.970;37.502;2023-08-12T06:51:27;8.83;;;7.80;;
32407;SDS011;18869;55.970;37.502;2023-08-12T06:54:23;8.07;;;7.10;;
32407;SDS011;18869;55.970;37.502;2023-08-12T06:56:50;8.53;;;7.57;;
32407;SDS011;18869;55.970;37.502;2023-08-12T06:59:18;8.03;;;7.23;;
32407;SDS011;18869;55.970;37.502;2023-08-12T07:01:46;7.43;;;6.73;;
32407;SDS011;18869;55.970;37.502;2023-08-12T07:04:13;7.93;;;6.97;;
32407;SDS011;18869;55.970;37.502;2023-08-12T07:06:40;11.80;;;7.30;;
32407;SDS011;18869;55.970;37.502;2023-08-12T07:09:07;7.10;;;6.40;;
32407;SDS011;18869;55.970;37.502;2023-08-12T07:11:34;7.63;;;6.20;;
32407;SDS011;18869;55.970;37.502;2023-08-12T07:14:04;6.50;;;5.87;;
32407;SDS011;18869;55.970;37.502;2023-08-12T07:16:31;7.63;;;5.97;;
32407;SDS011;18869;55.970;37.502;2023-08-12T07:18:58;8.13;;;6.33;;
32407;SDS011;18869;55.970;37.502;2023-08-12T07:21:25;8.00;;;6.50;;
32407;SDS011;18869;55.970;37.502;2023-08-12T07:23:52;8.80;;;6.57;;
32407;SDS011;18869;55.970;37.502;2023-08-12T07:26:25;7.80;;;6.67;;
32407;SDS011;18869;55.970;37.502;2023-08-12T07:28:52;10.00;;;6.50;;
32407;SDS011;18869;55.970;37.502;2023-08-12T07:31:19;8.47;;;7.27;;
32407;SDS011;18869;55.970;37.502;2023-08-12T07:33:46;7.00;;;6.13;;
32407;SDS011;18869;55.970;37.502;2023-08-12T07:36:17;6.77;;;6.07;;
32407;SDS011;18869;55.970;37.502;2023-08-12T07:38:44;8.50;;;6.80;;
32407;SDS011;18869;55.970;37.502;2023-08-12T07:41:14;6.87;;;5.63;;
32407;SDS011;18869;55.970;37.502;2023-08-12T07:46:27;8.50;;;6.43;;
32407;SDS011;18869;55.970;37.502;2023-08-12T07:48:54;10.63;;;7.50;;
32407;SDS011;18869;55.970;37.502;2023-08-12T07:51:21;7.23;;;6.50;;
32407;SDS011;18869;55.970;37.502;2023-08-12T07:53:48;8.27;;;6.47;;
32407;SDS011;18869;55.970;37.502;2023-08-12T07:56:15;12.87;;;6.83;;
32407;SDS011;18869;55.970;37.502;2023-08-12T07:58:42;9.97;;;7.17;;
32407;SDS011;18869;55.970;37.502;2023-08-12T08:01:11;7.87;;;7.03;;
32407;SDS011;18869;55.970;37.502;2023-08-12T08:03:39;9.80;;;6.47;;
32407;SDS011;18869;55.970;37.502;2023-08-12T08:06:06;8.77;;;6.83;;
32407;SDS011;18869;55.970;37.502;2023-08-12T08:08:34;10.97;;;7.27;;
32407;SDS011;18869;55.970;37.502;2023-08-12T08:11:03;13.13;;;7.40;;
32407;SDS011;18869;55.970;37.502;2023-08-12T08:13:54;13.83;;;7.10;;
32407;SDS011;18869;55.970;37.502;2023-08-12T08:16:21;7.53;;;6.83;;
32407;SDS011;18869;55.970;37.502;2023-08-12T08:18:48;9.57;;;8.23;;
32407;SDS011;18869;55.970;37.502;2023-08-12T08:21:15;9.37;;;7.87;;
32407;SDS011;18869;55.970;37.502;2023-08-12T08:23:51;9.47;;;7.93;;
32407;SDS011;18869;55.970;37.502;2023-08-12T08:26:25;9.60;;;7.73;;
32407;SDS011;18869;55.970;37.502;2023-08-12T08:28:55;9.83;;;7.63;;
32407;SDS011;18869;55.970;37.502;2023-08-12T08:31:24;9.97;;;8.37;;
32407;SDS011;18869;55.970;37.502;2023-08-12T08:33:53;9.27;;;7.97;;
32407;SDS011;18869;55.970;37.502;2023-08-12T08:36:21;12.20;;;8.43;;
32407;SDS011;18869;55.970;37.502;2023-08-12T08:38:49;8.30;;;7.50;;
32407;SDS011;18869;55.970;37.502;2023-08-12T08:41:16;11.43;;;8.50;;
32407;SDS011;18869;55.970;37.502;2023-08-12T08:43:44;11.10;;;7.80;;
32407;SDS011;18869;55.970;37.502;2023-08-12T08:46:14;9.03;;;8.00;;
32407;SDS011;18869;55.970;37.502;2023-08-12T08:48:41;10.17;;;8.20;;
32407;SDS011;18869;55.970;37.502;2023-08-12T08:51:09;9.43;;;8.33;;
32407;SDS011;18869;55.970;37.502;2023-08-12T08:53:37;11.63;;;7.97;;
32407;SDS011;18869;55.970;37.502;2023-08-12T08:56:05;13.40;;;8.60;;
32407;SDS011;18869;55.970;37.502;2023-08-12T08:58:32;11.93;;;8.97;;
32407;SDS011;18869;55.970;37.502;2023-08-12T09:00:59;11.07;;;8.70;;
32407;SDS011;18869;55.970;37.502;2023-08-12T09:03:26;9.67;;;8.67;;
32407;SDS011;18869;55.970;37.502;2023-08-12T09:05:54;10.73;;;8.33;;
32407;SDS011;18869;55.970;37.502;2023-08-12T09:08:22;12.17;;;9.07;;
32407;SDS011;18869;55.970;37.502;2023-08-12T09:10:53;11.00;;;8.30;;
32407;SDS011;18869;55.970;37.502;2023-08-12T09:13:27;11.07;;;9.33;;
32407;SDS011;18869;55.970;37.502;2023-08-12T09:15:56;12.73;;;9.07;;
32407;SDS011;18869;55.970;37.502;2023-08-12T09:18:23;10.30;;;9.20;;
32407;SDS011;18869;55.970;37.502;2023-08-12T09:20:58;11.63;;;9.07;;
32407;SDS011;18869;55.970;37.502;2023-08-12T09:23:26;10.57;;;8.90;;
32407;SDS011;18869;55.970;37.502;2023-08-12T09:25:53;13.93;;;9.77;;
32407;SDS011;18869;55.970;37.502;2023-08-12T09:28:20;10.13;;;9.13;;
32407;SDS011;18869;55.970;37.502;2023-08-12T09:30:50;12.43;;;9.30;;
32407;SDS011;18869;55.970;37.502;2023-08-12T09:33:24;12.10;;;9.23;;
32407;SDS011;18869;55.970;37.502;2023-08-12T09:36:00;10.10;;;8.90;;
32407;SDS011;18869;55.970;37.502;2023-08-12T09:38:37;16.40;;;9.87;;
32407;SDS011;18869;55.970;37.502;2023-08-12T09:41:05;13.10;;;9.57;;
32407;SDS011;18869;55.970;37.502;2023-08-12T09:43:40;13.47;;;9.17;;
32407;SDS011;18869;55.970;37.502;2023-08-12T09:46:31;13.70;;;9.10;;
32407;SDS011;18869;55.970;37.502;2023-08-12T09:49:06;13.33;;;9.67;;
32407;SDS011;18869;55.970;37.502;2023-08-12T09:51:34;12.23;;;9.47;;
32407;SDS011;18869;55.970;37.502;2023-08-12T09:54:05;11.47;;;9.83;;
32407;SDS011;18869;55.970;37.502;2023-08-12T09:56:55;13.60;;;9.40;;
32407;SDS011;18869;55.970;37.502;2023-08-12T09:59:25;12.33;;;10.20;;
32407;SDS011;18869;55.970;37.502;2023-08-12T10:02:14;10.93;;;9.60;;
32407;SDS011;18869;55.970;37.502;2023-08-12T10:04:45;15.20;;;10.20;;
32407;SDS011;18869;55.970;37.502;2023-08-12T10:07:12;11.03;;;8.87;;
32407;SDS011;18869;55.970;37.502;2023-08-12T10:09:49;11.37;;;9.00;;
32407;SDS011;18869;55.970;37.502;2023-08-12T10:12:16;11.47;;;9.17;;
32407;SDS011;18869;55.970;37.502;2023-08-12T10:14:43;13.43;;;8.77;;
32407;SDS011;18869;55.970;37.502;2023-08-12T10:17:10;10.47;;;9.20;;
32407;SDS011;18869;55.970;37.502;2023-08-12T10:19:38;11.07;;;9.27;;
32407;SDS011;18869;55.970;37.502;2023-08-12T10:22:10;12.33;;;9.83;;
32407;SDS011;18869;55.970;37.502;2023-08-12T10:24:37;11.50;;;9.10;;
32407;SDS011;18869;55.970;37.502;2023-08-12T10:27:05;12.30;;;9.60;;
32407;SDS011;18869;55.970;37.502;2023-08-12T10:29:35;9.87;;;8.87;;
32407;SDS011;18869;55.970;37.502;2023-08-12T10:32:02;14.07;;;10.53;;
32407;SDS011;18869;55.970;37.502;2023-08-12T10:34:29;13.37;;;10.30;;
32407;SDS011;18869;55.970;37.502;2023-08-12T10:36:57;11.90;;;10.23;;
32407;SDS011;18869;55.970;37.502;2023-08-12T10:39:28;11.90;;;10.37;;
32407;SDS011;18869;55.970;37.502;2023-08-12T10:41:56;11.17;;;9.97;;
32407;SDS011;18869;55.970;37.502;2023-08-12T10:44:25;13.43;;;11.10;;
32407;SDS011;18869;55.970;37.502;2023-08-12T10:46:53;14.13;;;10.87;;
32407;SDS011;18869;55.970;37.502;2023-08-12T10:49:21;12.10;;;10.90;;
32407;SDS011;18869;55.970;37.502;2023-08-12T10:51:50;12.90;;;11.50;;
32407;SDS011;18869;55.970;37.502;2023-08-12T10:54:21;13.10;;;10.80;;
32407;SDS011;18869;55.970;37.502;2023-08-12T10:57:09;13.37;;;11.07;;
32407;SDS011;18869;55.970;37.502;2023-08-12T10:59:52;13.77;;;11.80;;
32407;SDS011;18869;55.970;37.502;2023-08-12T11:02:21;15.10;;;11.20;;
32407;SDS011;18869;55.970;37.502;2023-08-12T11:04:53;13.03;;;10.30;;
32407;SDS011;18869;55.970;37.502;2023-08-12T11:07:28;13.63;;;10.93;;
32407;SDS011;18869;55.970;37.502;2023-08-12T11:10:03;14.93;;;10.73;;
32407;SDS011;18869;55.970;37.502;2023-08-12T11:12:31;11.97;;;10.47;;
32407;SDS011;18869;55.970;37.502;2023-08-12T11:15:00;13.43;;;11.07;;
32407;SDS011;18869;55.970;37.502;2023-08-12T11:17:33;14.57;;;11.70;;
32407;SDS011;18869;55.970;37.502;2023-08-12T11:20:03;12.53;;;11.03;;
32407;SDS011;18869;55.970;37.502;2023-08-12T11:22:32;14.30;;;11.20;;
32407;SDS011;18869;55.970;37.502;2023-08-12T11:25:04;12.97;;;11.57;;
32407;SDS011;18869;55.970;37.502;2023-08-12T11:27:38;12.83;;;11.47;;
32407;SDS011;18869;55.970;37.502;2023-08-12T11:30:07;16.10;;;11.93;;
32407;SDS011;18869;55.970;37.502;2023-08-12T11:32:36;11.73;;;10.50;;
32407;SDS011;18869;55.970;37.502;2023-08-12T11:35:04;12.20;;;11.00;;
32407;SDS011;18869;55.970;37.502;2023-08-12T11:37:37;13.33;;;10.57;;
32407;SDS011;18869;55.970;37.502;2023-08-12T11:40:08;14.43;;;11.47;;
32407;SDS011;18869;55.970;37.502;2023-08-12T11:42:48;12.10;;;10.67;;
32407;SDS011;18869;55.970;37.502;2023-08-12T11:45:25;14.23;;;11.80;;
32407;SDS011;18869;55.970;37.502;2023-08-12T11:47:56;12.53;;;10.67;;
32407;SDS011;18869;55.970;37.502;2023-08-12T11:50:24;14.53;;;11.57;;
32407;SDS011;18869;55.970;37.502;2023-08-12T11:53:00;13.50;;;12.10;;
32407;SDS011;18869;55.970;37.502;2023-08-12T11:55:39;15.73;;;11.67;;
32407;SDS011;18869;55.970;37.502;2023-08-12T11:58:20;12.93;;;11.53;;
32407;SDS011;18869;55.970;37.502;2023-08-12T12:00:49;12.67;;;10.70;;
32407;SDS011;18869;55.970;37.502;2023-08-12T12:03:17;12.40;;;11.07;;
32407;SDS011;18869;55.970;37.502;2023-08-12T12:05:45;12.90;;;11.60;;
32407;SDS011;18869;55.970;37.502;2023-08-12T12:08:14;13.20;;;11.80;;
32407;SDS011;18869;55.970;37.502;2023-08-12T12:10:48;16.37;;;12.40;;
32407;SDS011;18869;55.970;37.502;2023-08-12T12:13:15;13.80;;;11.53;;
32407;SDS011;18869;55.970;37.502;2023-08-12T12:15:43;13.30;;;10.83;;
32407;SDS011;18869;55.970;37.502;2023-08-12T12:18:11;15.70;;;11.30;;
32407;SDS011;18869;55.970;37.502;2023-08-12T12:20:42;15.40;;;12.20;;
32407;SDS011;18869;55.970;37.502;2023-08-12T12:23:21;12.90;;;10.47;;
32407;SDS011;18869;55.970;37.502;2023-08-12T12:25:57;14.63;;;10.63;;
32407;SDS011;18869;55.970;37.502;2023-08-12T12:28:25;12.07;;;10.30;;
32407;SDS011;18869;55.970;37.502;2023-08-12T12:30:53;12.57;;;11.27;;
32407;SDS011;18869;55.970;37.502;2023-08-12T12:33:20;19.70;;;12.60;;
32407;SDS011;18869;55.970;37.502;2023-08-12T12:35:48;15.30;;;11.77;;
32407;SDS011;18869;55.970;37.502;2023-08-12T12:38:14;16.20;;;12.37;;
32407;SDS011;18869;55.970;37.502;2023-08-12T12:40:41;13.63;;;12.20;;
32407;SDS011;18869;55.970;37.502;2023-08-12T12:43:09;16.13;;;13.40;;
32407;SDS011;18869;55.970;37.502;2023-08-12T12:45:36;16.13;;;12.73;;
32407;SDS011;18869;55.970;37.502;2023-08-12T12:48:04;17.70;;;11.67;;
32407;SDS011;18869;55.970;37.502;2023-08-12T12:50:32;15.73;;;11.53;;
32407;SDS011;18869;55.970;37.502;2023-08-12T12:52:59;13.67;;;10.73;;
32407;SDS011;18869;55.970;37.502;2023-08-12T12:55:25;11.63;;;10.53;;
32407;SDS011;18869;55.970;37.502;2023-08-12T12:57:52;14.00;;;10.53;;
32407;SDS011;18869;55.970;37.502;2023-08-12T13:00:20;14.53;;;11.50;;
32407;SDS011;18869;55.970;37.502;2023-08-12T13:02:47;13.80;;;10.80;;
32407;SDS011;18869;55.970;37.502;2023-08-12T13:05:14;13.67;;;9.83;;
32407;SDS011;18869;55.970;37.502;2023-08-12T13:07:41;13.43;;;10.33;;
32407;SDS011;18869;55.970;37.502;2023-08-12T13:10:08;12.27;;;10.67;;
32407;SDS011;18869;55.970;37.502;2023-08-12T13:12:36;15.00;;;11.83;;
32407;SDS011;18869;55.970;37.502;2023-08-12T13:15:03;14.47;;;12.97;;
32407;SDS011;18869;55.970;37.502;2023-08-12T13:17:31;13.97;;;11.33;;
32407;SDS011;18869;55.970;37.502;2023-08-12T13:19:58;14.17;;;11.27;;
32407;SDS011;18869;55.970;37.502;2023-08-12T13:22:25;11.87;;;10.50;;
32407;SDS011;18869;55.970;37.502;2023-08-12T13:24:52;13.07;;;10.60;;
32407;SDS011;18869;55.970;37.502;2023-08-12T13:27:19;11.77;;;10.10;;
32407;SDS011;18869;55.970;37.502;2023-08-12T13:29:46;13.80;;;10.27;;
32407;SDS011;18869;55.970;37.502;2023-08-12T13:32:13;12.00;;;9.90;;
32407;SDS011;18869;55.970;37.502;2023-08-12T13:34:41;13.73;;;9.17;;
32407;SDS011;18869;55.970;37.502;2023-08-12T13:37:11;13.73;;;9.90;;
32407;SDS011;18869;55.970;37.502;2023-08-12T13:39:38;12.43;;;9.97;;
32407;SDS011;18869;55.970;37.502;2023-08-12T13:42:05;12.20;;;10.03;;
32407;SDS011;18869;55.970;37.502;2023-08-12T13:44:32;15.67;;;9.80;;
32407;SDS011;18869;55.970;37.502;2023-08-12T13:46:59;16.90;;;12.33;;
32407;SDS011;18869;55.970;37.502;2023-08-12T13:49:27;13.40;;;11.37;;
32407;SDS011;18869;55.970;37.502;2023-08-12T13:51:55;12.47;;;9.87;;
32407;SDS011;18869;55.970;37.502;2023-08-12T13:54:21;10.47;;;9.30;;
32407;SDS011;18869;55.970;37.502;2023-08-12T13:56:49;12.10;;;10.77;;
32407;SDS011;18869;55.970;37.502;2023-08-12T13:59:16;11.13;;;9.13;;
32407;SDS011;18869;55.970;37.502;2023-08-12T14:01:43;11.97;;;8.53;;
32407;SDS011;18869;55.970;37.502;2023-08-12T14:04:11;12.20;;;9.10;;
32407;SDS011;18869;55.970;37.502;2023-08-12T14:06:38;10.17;;;9.13;;
32407;SDS011;18869;55.970;37.502;2023-08-12T14:09:06;10.00;;;9.03;;
32407;SDS011;18869;55.970;37.502;2023-08-12T14:11:34;10.10;;;8.43;;
32407;SDS011;18869;55.970;37.502;2023-08-12T14:14:01;13.30;;;9.67;;
32407;SDS011;18869;55.970;37.502;2023-08-12T14:16:29;11.67;;;10.20;;
32407;SDS011;18869;55.970;37.502;2023-08-12T14:18:56;12.50;;;9.63;;
32407;SDS011;18869;55.970;37.502;2023-08-12T14:21:23;14.67;;;10.07;;
32407;SDS011;18869;55.970;37.502;2023-08-12T14:23:52;13.97;;;10.53;;
32407;SDS011;18869;55.970;37.502;2023-08-12T14:26:20;12.97;;;9.67;;
32407;SDS011;18869;55.970;37.502;2023-08-12T14:28:47;13.83;;;10.70;;